This is the latest recevied weather packets stored in our database for station/object SQ5NWH-11. If no packets are shown the sender has not sent any weather packets the latest 1 day(s).
| Time | Temp. | Humidity | Pressure | Rain* | Wind** | Luminosity | Snow |
|---|---|---|---|---|---|---|---|
| 1778110163 | 18.33° C | 57% | 997 hPa | - | - | - | - |
| 1778106558 | 18.89° C | 56% | 997 hPa | - | - | - | - |
| 1778104756 | 18.89° C | 55% | 996 hPa | - | - | - | - |
| 1778093042 | 20° C | 46% | 995 hPa | - | - | - | - |
| 1778092141 | 20.56° C | 46% | 995 hPa | - | - | - | - |
| 1778078619 | 22.22° C | 42% | 995 hPa | - | - | - | - |
| 1778065103 | 21.67° C | 45% | 995 hPa | - | - | - | - |
| 1778064202 | 21.67° C | 45% | 995 hPa | - | - | - | - |
| 1778063301 | 21.11° C | 45% | 995 hPa | - | - | - | - |
| 1778062400 | 21.11° C | 46% | 995 hPa | - | - | - | - |
| 1778061499 | 21.11° C | 46% | 994 hPa | - | - | - | - |
| 1778060598 | 20.56° C | 47% | 994 hPa | - | - | - | - |
| 1778058796 | 20° C | 48% | 994 hPa | - | - | - | - |
| 1778057895 | 20° C | 47% | 994 hPa | - | - | - | - |
| 1778055191 | 18.89° C | 48% | 994 hPa | - | - | - | - |
| 1778050686 | 17.78° C | 49% | 994 hPa | - | - | - | - |
| 1778048884 | 17.22° C | 49% | 994 hPa | - | - | - | - |
| 1778047986 | 17.22° C | 49% | 994 hPa | - | - | - | - |
| 1778047082 | 16.67° C | 49% | 994 hPa | - | - | - | - |
| 1778046181 | 16.67° C | 49% | 995 hPa | - | - | - | - |
| 1778045280 | 16.67° C | 48% | 995 hPa | - | - | - | - |
| 1778044379 | 16.67° C | 48% | 995 hPa | - | - | - | - |
| 1778042577 | 16.11° C | 49% | 995 hPa | - | - | - | - |
| 1778041676 | 16.11° C | 49% | 995 hPa | - | - | - | - |
| 1778040775 | 16.11° C | 49% | 995 hPa | - | - | - | - |
* Rain since midnight (hover to see other rain measurements)
** Current wind speed in m/s (hover to see current wind gust speed)